createdAt,value
2023-01-11T00:01:55.152Z,3.38
2023-01-11T00:04:23.317Z,3.80
2023-01-11T00:06:50.559Z,3.58
2023-01-11T00:09:17.389Z,3.55
2023-01-11T00:11:44.005Z,3.03
2023-01-11T00:14:10.565Z,2.75
2023-01-11T00:16:37.601Z,3.25
2023-01-11T00:19:04.255Z,3.38
2023-01-11T00:21:31.288Z,3.20
2023-01-11T00:23:57.881Z,3.40
2023-01-11T00:26:24.804Z,3.13
2023-01-11T00:28:52.543Z,2.92
2023-01-11T00:31:19.319Z,2.90
2023-01-11T00:33:46.003Z,2.90
2023-01-11T00:36:13.037Z,2.85
2023-01-11T00:38:55.356Z,2.97
2023-01-11T00:41:42.657Z,3.03
2023-01-11T00:44:29.343Z,2.90
2023-01-11T00:47:15.000Z,2.90
2023-01-11T00:49:41.996Z,3.17
2023-01-11T00:52:09.730Z,2.97
2023-01-11T00:54:37.944Z,3.30
2023-01-11T00:57:07.176Z,2.67
2023-01-11T00:59:34.970Z,3.00
2023-01-11T01:02:02.103Z,3.42
2023-01-11T01:04:28.752Z,3.53
2023-01-11T01:06:55.418Z,5.18
2023-01-11T01:09:22.308Z,4.15
2023-01-11T01:11:49.069Z,3.22
2023-01-11T01:14:30.885Z,3.60
2023-01-11T01:17:02.306Z,3.25
2023-01-11T01:21:58.350Z,3.13
2023-01-11T01:24:25.789Z,3.20
2023-01-11T01:26:52.387Z,4.18
2023-01-11T01:29:19.110Z,3.38
2023-01-11T01:31:45.768Z,3.13
2023-01-11T01:34:12.613Z,3.40
2023-01-11T01:36:39.612Z,3.00
2023-01-11T01:39:07.245Z,3.58
2023-01-11T01:41:35.103Z,3.67
2023-01-11T01:44:04.161Z,3.65
2023-01-11T01:46:33.429Z,3.58
2023-01-11T01:49:06.028Z,3.60
2023-01-11T01:51:39.479Z,3.35
2023-01-11T01:54:14.314Z,3.42
2023-01-11T01:56:50.661Z,3.55
2023-01-11T01:59:19.691Z,4.10
2023-01-11T02:01:47.684Z,3.40
2023-01-11T02:04:18.748Z,3.20
2023-01-11T02:06:45.586Z,3.78
2023-01-11T02:09:23.332Z,3.55
2023-01-11T02:11:51.223Z,3.70
2023-01-11T02:14:20.429Z,2.95
2023-01-11T02:16:46.993Z,3.70
2023-01-11T02:19:29.170Z,3.33
2023-01-11T02:22:04.747Z,3.08
2023-01-11T02:24:55.170Z,3.20
2023-01-11T02:27:44.105Z,3.40
2023-01-11T02:30:22.638Z,3.65
2023-01-11T02:33:07.910Z,2.88
2023-01-11T02:36:01.019Z,3.03
2023-01-11T02:38:37.844Z,3.53
2023-01-11T02:41:10.531Z,3.33
2023-01-11T02:44:16.491Z,3.10
2023-01-11T02:46:55.226Z,3.22
2023-01-11T02:49:27.807Z,3.30
2023-01-11T02:52:02.619Z,3.42
2023-01-11T02:54:29.724Z,3.33
2023-01-11T02:57:00.158Z,2.97
2023-01-11T02:59:32.910Z,3.40
2023-01-11T03:01:59.656Z,3.10
2023-01-11T03:04:33.999Z,3.72
2023-01-11T03:07:55.606Z,3.58
2023-01-11T03:10:40.316Z,3.00
2023-01-11T03:13:18.973Z,3.22
2023-01-11T03:16:33.409Z,3.10
2023-01-11T03:19:19.514Z,3.50
2023-01-11T03:22:02.254Z,3.40
2023-01-11T03:24:47.044Z,3.05
2023-01-11T03:27:47.426Z,3.40
2023-01-11T03:30:16.906Z,3.40
2023-01-11T03:33:02.312Z,3.50
2023-01-11T03:35:47.906Z,3.30
2023-01-11T03:38:24.938Z,3.60
2023-01-11T03:40:59.301Z,4.13
2023-01-11T03:43:28.852Z,3.67
2023-01-11T03:46:19.770Z,3.90
2023-01-11T03:48:51.934Z,4.07
2023-01-11T03:51:24.991Z,4.47
2023-01-11T03:53:52.794Z,4.07
2023-01-11T03:56:23.369Z,4.30
2023-01-11T03:58:50.003Z,4.50
2023-01-11T04:01:16.951Z,4.25
2023-01-11T04:03:43.524Z,3.90
2023-01-11T04:06:11.898Z,4.45
2023-01-11T04:08:38.535Z,4.57
2023-01-11T04:11:05.262Z,4.05
2023-01-11T04:13:33.939Z,4.13
2023-01-11T04:16:00.840Z,4.57
2023-01-11T04:18:27.888Z,4.60
2023-01-11T04:20:54.513Z,4.45
2023-01-11T04:23:21.101Z,4.32
2023-01-11T04:25:47.666Z,4.28
2023-01-11T04:28:14.255Z,3.70
2023-01-11T04:30:40.785Z,4.20
2023-01-11T04:33:07.412Z,4.05
2023-01-11T04:35:34.023Z,4.30
2023-01-11T04:38:00.642Z,4.32
2023-01-11T04:40:27.740Z,4.40
2023-01-11T04:42:54.314Z,4.40
2023-01-11T04:45:21.349Z,4.85
2023-01-11T04:47:54.720Z,4.70
2023-01-11T04:50:21.308Z,5.05
2023-01-11T04:52:47.875Z,4.38
2023-01-11T04:55:14.465Z,4.68
2023-01-11T04:57:41.084Z,5.18
2023-01-11T05:00:10.741Z,4.40
2023-01-11T05:02:39.551Z,4.68
2023-01-11T05:05:07.492Z,5.28
2023-01-11T05:07:34.393Z,5.15
2023-01-11T05:10:01.071Z,5.88
2023-01-11T05:12:27.729Z,5.35
2023-01-11T05:14:54.567Z,5.05
2023-01-11T05:17:21.173Z,4.57
2023-01-11T05:19:47.765Z,5.50
2023-01-11T05:22:14.368Z,4.97
2023-01-11T05:24:40.944Z,5.00
2023-01-11T05:27:07.570Z,4.82
2023-01-11T05:29:34.165Z,4.82
2023-01-11T05:32:00.796Z,5.53
2023-01-11T05:34:27.491Z,5.30
2023-01-11T05:36:54.053Z,5.25
2023-01-11T05:39:22.971Z,5.57
2023-01-11T05:41:49.592Z,5.28
2023-01-11T05:44:34.985Z,5.38
2023-01-11T05:47:01.565Z,5.85
2023-01-11T05:49:28.169Z,5.18
2023-01-11T05:51:54.828Z,5.30
2023-01-11T05:54:21.583Z,5.40
2023-01-11T05:56:48.075Z,5.53
2023-01-11T05:59:14.728Z,5.13
2023-01-11T06:01:41.608Z,4.97
2023-01-11T06:04:08.619Z,5.00
2023-01-11T06:06:35.446Z,4.97
2023-01-11T06:09:02.065Z,5.93
2023-01-11T06:11:28.708Z,5.95
2023-01-11T06:13:55.318Z,5.72
2023-01-11T06:16:23.587Z,6.43
2023-01-11T06:18:52.088Z,5.63
2023-01-11T06:21:19.356Z,5.70
2023-01-11T06:23:50.572Z,5.70
2023-01-11T06:26:19.891Z,6.63
2023-01-11T06:28:46.995Z,5.80
2023-01-11T06:31:16.153Z,6.00
2023-01-11T06:33:43.844Z,5.80
2023-01-11T06:36:12.111Z,5.38
2023-01-11T06:38:38.728Z,5.65
2023-01-11T06:41:08.355Z,6.50
2023-01-11T06:43:36.926Z,6.10
2023-01-11T06:46:03.760Z,5.68
2023-01-11T06:48:30.819Z,6.10
2023-01-11T06:50:58.535Z,6.93
2023-01-11T06:53:28.641Z,5.80
2023-01-11T06:55:57.887Z,5.03
2023-01-11T06:58:25.791Z,5.05
2023-01-11T07:00:53.939Z,6.18
2023-01-11T07:03:23.867Z,6.45
2023-01-11T07:05:51.391Z,5.85
2023-01-11T07:08:18.356Z,5.72
2023-01-11T07:10:45.539Z,6.25
2023-01-11T07:13:12.402Z,5.90
2023-01-11T07:15:39.167Z,5.57
2023-01-11T07:18:05.962Z,5.43
2023-01-11T07:20:32.611Z,6.10
2023-01-11T07:23:00.356Z,6.15
2023-01-11T07:25:28.294Z,5.28
2023-01-11T07:28:00.206Z,4.97
2023-01-11T07:30:31.053Z,5.25
2023-01-11T07:32:59.071Z,4.82
2023-01-11T07:35:28.088Z,5.50
2023-01-11T07:37:55.525Z,5.88
2023-01-11T07:40:22.197Z,5.82
2023-01-11T07:43:10.980Z,6.15
2023-01-11T07:45:45.941Z,5.50
2023-01-11T07:48:14.324Z,5.60
2023-01-11T07:50:44.546Z,5.90
2023-01-11T07:53:12.159Z,5.80
2023-01-11T07:55:39.709Z,6.07
2023-01-11T07:58:11.381Z,6.03
2023-01-11T08:00:38.261Z,5.60
2023-01-11T08:03:04.961Z,5.60
2023-01-11T08:05:31.780Z,5.90
2023-01-11T08:07:58.691Z,5.60
2023-01-11T08:10:25.312Z,5.00
2023-01-11T08:13:11.364Z,5.40
2023-01-11T08:15:43.921Z,5.68
2023-01-11T08:18:12.016Z,5.40
2023-01-11T08:20:40.038Z,5.57
2023-01-11T08:23:09.468Z,5.57
2023-01-11T08:25:36.541Z,5.25
2023-01-11T08:28:05.517Z,5.53
2023-01-11T08:30:32.264Z,5.80
2023-01-11T08:33:01.041Z,6.57
2023-01-11T08:35:28.053Z,6.07
2023-01-11T08:37:54.673Z,5.40
2023-01-11T08:40:23.862Z,5.68
2023-01-11T08:42:57.447Z,6.28
2023-01-11T08:45:24.804Z,6.03
2023-01-11T08:47:52.008Z,5.95
2023-01-11T08:50:20.167Z,6.40
2023-01-11T08:52:47.876Z,6.35
2023-01-11T08:55:14.593Z,6.35
2023-01-11T08:57:41.231Z,6.10
2023-01-11T09:00:08.762Z,6.15
2023-01-11T09:02:35.394Z,5.72
2023-01-11T09:05:02.215Z,5.45
2023-01-11T09:07:29.151Z,5.43
2023-01-11T09:09:55.752Z,6.78
2023-01-11T09:12:22.308Z,6.60
2023-01-11T09:14:48.984Z,9.40
2023-01-11T09:17:15.578Z,6.20
2023-01-11T09:19:42.156Z,5.32
2023-01-11T09:22:08.706Z,5.57
2023-01-11T09:24:35.293Z,5.97
2023-01-11T09:27:02.037Z,7.35
2023-01-11T09:29:28.745Z,6.55
2023-01-11T09:31:55.404Z,5.85
2023-01-11T09:34:22.163Z,6.35
2023-01-11T09:36:48.966Z,6.70
2023-01-11T09:39:18.661Z,6.47
2023-01-11T09:41:49.469Z,5.85
2023-01-11T09:44:22.814Z,6.13
2023-01-11T09:46:56.732Z,6.00
2023-01-11T09:49:31.713Z,7.35
2023-01-11T09:52:13.140Z,5.75
2023-01-11T09:54:40.288Z,6.05
2023-01-11T09:57:26.658Z,6.00
2023-01-11T10:00:31.690Z,6.65
2023-01-11T10:03:24.182Z,7.78
2023-01-11T10:06:13.020Z,6.60
2023-01-11T10:18:23.318Z,6.32
2023-01-11T10:18:57.995Z,6.18
2023-01-11T10:21:31.753Z,5.50
2023-01-11T10:24:12.533Z,5.50
2023-01-11T10:26:42.264Z,5.30
2023-01-11T10:29:17.523Z,4.95
2023-01-11T10:32:02.574Z,5.05
2023-01-11T10:34:54.354Z,5.43
2023-01-11T10:37:43.612Z,4.60
2023-01-11T10:40:30.543Z,4.60
2023-01-11T10:43:09.039Z,4.65
2023-01-11T10:45:51.684Z,4.43
2023-01-11T10:48:29.471Z,4.38
2023-01-11T10:51:03.696Z,4.50
2023-01-11T10:53:51.459Z,4.10
2023-01-11T10:56:33.262Z,4.50
2023-01-11T10:59:09.044Z,4.20
2023-01-11T11:02:00.922Z,3.70
2023-01-11T11:04:36.016Z,4.28
2023-01-11T11:07:14.713Z,3.58
2023-01-11T11:09:58.354Z,3.80
2023-01-11T11:12:34.933Z,3.88
2023-01-11T11:15:23.613Z,3.70
2023-01-11T11:17:54.014Z,3.17
2023-01-11T11:20:23.402Z,3.50
2023-01-11T11:22:51.802Z,3.47
2023-01-11T11:25:27.345Z,3.55
2023-01-11T11:28:05.126Z,3.90
2023-01-11T11:30:37.835Z,3.20
2023-01-11T11:33:24.481Z,3.65
2023-01-11T11:36:14.731Z,3.47
2023-01-11T11:39:05.369Z,3.70
2023-01-11T11:41:47.241Z,4.07
2023-01-11T11:44:24.319Z,5.13
2023-01-11T11:46:57.930Z,4.25
2023-01-11T11:49:25.233Z,7.38
2023-01-11T11:51:52.911Z,9.05
2023-01-11T11:54:22.614Z,6.25
2023-01-11T11:56:49.650Z,4.13
2023-01-11T11:59:20.302Z,3.40
2023-01-11T12:02:03.216Z,3.40
2023-01-11T12:04:44.636Z,3.53
2023-01-11T12:10:05.676Z,3.70
2023-01-11T12:12:34.232Z,4.30
2023-01-11T12:15:16.105Z,4.38
2023-01-11T12:17:43.207Z,4.90
2023-01-11T12:20:22.019Z,4.90
2023-01-11T12:23:18.445Z,4.50
2023-01-11T12:26:04.611Z,4.60
2023-01-11T12:29:02.024Z,5.47
2023-01-11T12:31:47.433Z,4.90
2023-01-11T12:34:51.927Z,5.20
2023-01-11T12:37:39.324Z,5.10
2023-01-11T12:40:08.029Z,5.18
2023-01-11T12:42:49.879Z,5.03
2023-01-11T12:45:21.657Z,5.75
2023-01-11T12:48:35.846Z,5.63
2023-01-11T12:51:13.828Z,5.18
2023-01-11T12:54:04.929Z,5.60
2023-01-11T12:56:53.104Z,5.60
2023-01-11T13:00:00.173Z,5.45
2023-01-11T13:03:00.879Z,6.10
2023-01-11T13:05:41.944Z,6.25
2023-01-11T13:08:23.927Z,5.50
2023-01-11T13:11:35.182Z,5.82
2023-01-11T13:14:10.658Z,6.25
2023-01-11T13:16:50.973Z,5.13
2023-01-11T13:19:37.513Z,6.20
2023-01-11T13:22:11.068Z,5.20
2023-01-11T13:24:40.039Z,6.32
2023-01-11T13:27:14.607Z,5.72
2023-01-11T13:29:45.596Z,5.82
2023-01-11T13:32:15.782Z,5.97
2023-01-11T13:34:49.322Z,5.43
2023-01-11T13:37:25.929Z,5.25
2023-01-11T13:40:08.217Z,6.20
2023-01-11T13:42:42.458Z,6.00
2023-01-11T13:45:35.862Z,6.72
2023-01-11T13:48:14.147Z,5.88
2023-01-11T13:51:04.516Z,6.50
2023-01-11T13:54:00.435Z,7.10
2023-01-11T13:56:41.754Z,6.75
2023-01-11T13:59:26.613Z,6.40
2023-01-11T14:02:02.584Z,5.95
2023-01-11T14:04:51.611Z,6.68
2023-01-11T14:08:00.580Z,6.80
2023-01-11T14:10:38.386Z,5.93
2023-01-11T14:13:10.684Z,6.25
2023-01-11T14:16:06.391Z,6.53
2023-01-11T14:18:36.921Z,6.20
2023-01-11T14:21:25.975Z,6.53
2023-01-11T14:23:54.979Z,6.78
2023-01-11T14:26:46.507Z,6.90
2023-01-11T14:32:08.058Z,7.10
2023-01-11T14:34:56.891Z,7.82
2023-01-11T14:37:45.553Z,6.90
2023-01-11T14:40:26.102Z,7.25
2023-01-11T14:43:01.753Z,7.13
2023-01-11T14:45:31.407Z,7.18
2023-01-11T14:48:03.958Z,7.13
2023-01-11T14:51:07.657Z,7.45
2023-01-11T14:53:42.493Z,7.18
2023-01-11T14:56:35.520Z,7.15
2023-01-11T14:59:06.167Z,7.35
2023-01-11T15:02:06.753Z,8.45
2023-01-11T15:04:51.860Z,8.73
2023-01-11T15:07:24.283Z,7.72
2023-01-11T15:09:55.646Z,7.68
2023-01-11T15:15:02.749Z,7.03
2023-01-11T15:17:49.287Z,7.78
2023-01-11T15:20:18.457Z,8.38
2023-01-11T15:22:46.428Z,9.75
2023-01-11T15:25:26.788Z,10.07
2023-01-11T15:27:54.733Z,11.60
2023-01-11T15:30:30.228Z,11.23
2023-01-11T15:33:18.610Z,9.93
2023-01-11T15:35:57.505Z,9.45
2023-01-11T15:38:32.815Z,8.32
2023-01-11T15:41:22.183Z,8.27
2023-01-11T15:43:59.645Z,9.07
2023-01-11T15:46:53.624Z,10.60
2023-01-11T15:49:23.176Z,10.23
2023-01-11T15:52:01.091Z,14.82
2023-01-11T15:54:34.223Z,13.90
2023-01-11T15:57:30.047Z,11.15
2023-01-11T16:00:16.828Z,9.90
2023-01-11T16:03:08.585Z,8.43
2023-01-11T16:05:39.397Z,8.13
2023-01-11T16:08:05.927Z,8.48
2023-01-11T16:10:45.488Z,9.32
2023-01-11T16:13:26.820Z,12.38
2023-01-11T16:16:15.110Z,10.32
2023-01-11T16:18:53.125Z,12.75
2023-01-11T16:21:29.306Z,10.82
2023-01-11T16:23:56.265Z,9.63
2023-01-11T16:26:23.222Z,10.95
2023-01-11T16:28:56.867Z,9.32
2023-01-11T16:31:24.074Z,11.68
2023-01-11T16:33:52.358Z,10.93
2023-01-11T16:36:23.713Z,9.75
2023-01-11T16:41:57.635Z,8.38
2023-01-11T16:44:27.093Z,8.57
2023-01-11T16:47:14.004Z,9.55
2023-01-11T16:49:43.213Z,8.80
2023-01-11T16:52:28.198Z,9.20
2023-01-11T16:54:57.398Z,9.20
2023-01-11T16:57:34.537Z,10.13
2023-01-11T17:00:04.441Z,10.43
2023-01-11T17:02:37.852Z,10.80
2023-01-11T17:05:22.047Z,10.10
2023-01-11T17:07:49.894Z,11.60
2023-01-11T17:10:24.585Z,12.40
2023-01-11T17:13:35.616Z,11.02
2023-01-11T17:16:16.027Z,11.73
2023-01-11T17:18:44.116Z,14.25
2023-01-11T17:21:25.887Z,13.35
2023-01-11T17:23:57.991Z,12.52
2023-01-11T17:26:28.184Z,13.70
2023-01-11T17:28:57.497Z,15.55
2023-01-11T17:31:29.556Z,12.77
2023-01-11T17:34:19.081Z,11.77
2023-01-11T17:36:46.626Z,10.07
2023-01-11T17:39:32.455Z,11.07
2023-01-11T17:42:23.814Z,11.38
2023-01-11T17:45:11.152Z,10.98
2023-01-11T17:47:39.947Z,11.13
2023-01-11T17:50:17.503Z,10.75
2023-01-11T17:52:54.523Z,11.43
2023-01-11T17:55:24.138Z,13.68
2023-01-11T17:58:09.523Z,18.38
2023-01-11T18:00:36.530Z,18.45
2023-01-11T18:03:10.555Z,18.58
2023-01-11T18:05:37.613Z,21.00
2023-01-11T18:08:09.559Z,16.60
2023-01-11T18:10:40.035Z,14.00
2023-01-11T18:13:19.509Z,14.03
2023-01-11T18:15:46.812Z,14.07
2023-01-11T18:18:41.595Z,15.48
2023-01-11T18:21:26.588Z,16.52
2023-01-11T18:24:11.471Z,18.58
2023-01-11T18:26:47.312Z,15.20
2023-01-11T18:29:39.909Z,16.52
2023-01-11T18:32:10.446Z,16.13
2023-01-11T18:34:37.019Z,16.88
2023-01-11T18:37:07.468Z,17.67
2023-01-11T18:39:34.601Z,14.97
2023-01-11T18:42:08.611Z,20.35
2023-01-11T18:44:36.096Z,23.60
2023-01-11T18:47:11.233Z,28.00
2023-01-11T18:49:37.870Z,26.35
2023-01-11T18:52:05.155Z,15.68
2023-01-11T18:54:31.708Z,6.10
2023-01-11T18:56:58.276Z,4.55
2023-01-11T18:59:24.927Z,4.38
2023-01-11T19:02:01.513Z,3.33
2023-01-11T19:04:38.387Z,3.30
2023-01-11T19:07:04.975Z,3.88
2023-01-11T19:09:31.548Z,2.67
2023-01-11T19:11:58.118Z,3.72
2023-01-11T19:14:24.715Z,3.90
2023-01-11T19:16:51.266Z,4.97
2023-01-11T19:19:17.831Z,5.00
2023-01-11T19:21:44.509Z,5.25
2023-01-11T19:24:11.085Z,7.57
2023-01-11T19:26:37.733Z,7.95
2023-01-11T19:29:04.390Z,8.10
2023-01-11T19:31:31.002Z,7.32
2023-01-11T19:33:57.552Z,7.93
2023-01-11T19:36:24.339Z,7.43
2023-01-11T19:38:51.712Z,6.90
2023-01-11T19:41:18.297Z,6.68
2023-01-11T19:43:45.041Z,5.93
2023-01-11T19:46:15.041Z,6.07
2023-01-11T19:48:43.740Z,5.55
2023-01-11T19:51:12.337Z,5.53
2023-01-11T19:53:38.961Z,5.63
2023-01-11T19:56:08.261Z,4.57
2023-01-11T19:58:38.012Z,4.80
2023-01-11T20:01:12.650Z,14.82
2023-01-11T20:03:42.655Z,15.82
2023-01-11T20:06:09.755Z,21.75
2023-01-11T20:08:38.476Z,9.80
2023-01-11T20:11:07.485Z,8.05
2023-01-11T20:13:34.542Z,6.07
2023-01-11T20:16:09.466Z,5.65
2023-01-11T20:18:36.157Z,5.10
2023-01-11T20:21:03.472Z,4.75
2023-01-11T20:23:31.549Z,5.93
2023-01-11T20:25:59.697Z,5.35
2023-01-11T20:28:26.580Z,4.60
2023-01-11T20:30:54.000Z,4.45
2023-01-11T20:33:20.686Z,4.35
2023-01-11T20:35:48.730Z,4.28
2023-01-11T20:38:15.366Z,4.43
2023-01-11T20:40:42.299Z,4.57
2023-01-11T20:43:11.036Z,4.05
2023-01-11T20:45:39.583Z,3.53
2023-01-11T20:48:07.214Z,3.60
2023-01-11T20:50:34.778Z,3.50
2023-01-11T20:53:01.963Z,3.47
2023-01-11T20:55:28.845Z,3.55
2023-01-11T20:57:55.503Z,3.00
2023-01-11T21:00:22.277Z,3.10
2023-01-11T21:02:49.708Z,4.05
2023-01-11T21:05:16.778Z,3.83
2023-01-11T21:07:43.632Z,3.35
2023-01-11T21:10:10.826Z,3.22
2023-01-11T21:15:03.247Z,4.68
2023-01-11T21:17:29.897Z,3.65
2023-01-11T21:19:56.488Z,4.00
2023-01-11T21:22:23.125Z,3.90
2023-01-11T21:24:49.703Z,4.90
2023-01-11T21:27:16.334Z,4.43
2023-01-11T21:29:42.967Z,4.78
2023-01-11T21:32:09.792Z,4.45
2023-01-11T21:34:36.403Z,4.10
2023-01-11T21:37:02.982Z,3.60
2023-01-11T21:39:29.563Z,4.15
2023-01-11T21:41:56.275Z,3.30
2023-01-11T21:44:27.555Z,3.72
2023-01-11T21:46:54.188Z,2.67
2023-01-11T21:49:22.444Z,2.80
2023-01-11T21:51:49.040Z,2.80
2023-01-11T21:54:19.666Z,2.10
2023-01-11T21:56:47.546Z,2.75
2023-01-11T21:59:14.976Z,2.38
2023-01-11T22:01:45.381Z,2.42
2023-01-11T22:04:14.691Z,2.40
2023-01-11T22:06:43.431Z,2.42
2023-01-11T22:09:11.733Z,2.30
2023-01-11T22:11:39.083Z,2.13
2023-01-11T22:14:08.413Z,2.10
2023-01-11T22:16:36.501Z,2.20
2023-01-11T22:19:06.000Z,2.28
2023-01-11T22:21:32.750Z,2.05
2023-01-11T22:23:59.753Z,2.05
2023-01-11T22:26:27.867Z,2.05
2023-01-11T22:29:13.689Z,2.40
2023-01-11T22:31:51.291Z,2.10
2023-01-11T22:34:19.008Z,1.90
2023-01-11T22:36:45.701Z,2.13
2023-01-11T22:39:14.162Z,1.95
2023-01-11T22:41:40.826Z,2.10
2023-01-11T22:44:09.342Z,1.55
2023-01-11T22:46:35.906Z,1.70
2023-01-11T22:49:03.173Z,1.67
2023-01-11T22:51:29.768Z,2.15
2023-01-11T22:53:56.609Z,1.90
2023-01-11T22:56:25.778Z,2.33
2023-01-11T22:58:56.848Z,1.83
2023-01-11T23:01:28.951Z,1.73
2023-01-11T23:03:57.314Z,1.73
2023-01-11T23:06:34.285Z,1.88
2023-01-11T23:09:00.923Z,1.75
2023-01-11T23:11:48.748Z,1.70
2023-01-11T23:14:18.771Z,1.83
2023-01-11T23:16:47.296Z,1.90
2023-01-11T23:19:16.692Z,1.73
2023-01-11T23:21:44.828Z,1.60
2023-01-11T23:24:13.325Z,2.13
2023-01-11T23:26:40.276Z,1.90
2023-01-11T23:29:07.352Z,1.67
2023-01-11T23:31:33.961Z,1.60
2023-01-11T23:34:02.234Z,1.50
2023-01-11T23:36:31.712Z,1.50
2023-01-11T23:38:58.543Z,1.50
2023-01-11T23:41:44.366Z,1.67
2023-01-11T23:44:13.643Z,1.50
2023-01-11T23:46:59.804Z,1.35
2023-01-11T23:49:27.228Z,1.38
2023-01-11T23:51:54.847Z,1.63
2023-01-11T23:54:22.299Z,1.50
2023-01-11T23:56:49.147Z,1.40
2023-01-11T23:59:15.767Z,1.42
